CheckWX is a tool to help pilots better visualize weather data.  It is not intended as a substitute for an official pre-flight weather briefing.

14:31:19 UTC

KPTS METAR
Atkinson Municipal Airport
Pittsburg, Kansas, USA
Current

16 mins ago

KPTS 221415Z AUTO 27006KT 10SM CLR 08/00 A3009 RMK AO2 T00760004
Observed
Oct-22 @ 14:15 UTC
Wind
  • 270° at 6 KTS
Visibility
10 SM
Flight Rules
VFR
Cloud Levels
  • Clear skies
Temperature
C / 46°F
Dewpoint
C / 32°F
Humidity
57%
Altimeter
30.09" Hg
Pressure
1018.92 hPa
Previous

36 mins ago

KPTS 221355Z AUTO 26008KT 10SM CLR 07/00 A3008 RMK AO2 T00670003
Observed
Oct-22 @ 13:55 UTC
Wind
  • 260° at 8 KTS
Visibility
10 SM
Flight Rules
VFR
Cloud Levels
  • Clear skies
Temperature
C / 45°F
Dewpoint
C / 32°F
Humidity
61%
Altimeter
30.08" Hg
Pressure
1018.62 hPa
Previous

56 mins ago

KPTS 221335Z AUTO 26006KT 10SM CLR 06/00 A3007 RMK AO2 T00580001
Observed
Oct-22 @ 13:35 UTC
Wind
  • 260° at 6 KTS
Visibility
10 SM
Flight Rules
VFR
Cloud Levels
  • Clear skies
Temperature
C / 43°F
Dewpoint
C / 32°F
Humidity
66%
Altimeter
30.07" Hg
Pressure
1018.32 hPa